Time;durP1;ratioP1;P1;durP2;ratioP2;P2;SDS_P1;SDS_P2;PMS_P1;PMS_P2;Temp;Humidity;BMP_temperature;BMP_pressure;BME280_temperature;BME280_humidity;BME280_pressure;Samples;Min_cycle;Max_cycle;Signal;HPM_P1;HPM_P2
2022/10/19 00:01:37;;;;;;;13.23;8.27;;;;;;;15.10;80.30;99264.13;7384689;19;20035;-73
2022/10/19 00:04:04;;;;;;;10.25;7.82;;;;;;;15.04;80.27;99262.13;7383754;19;20014;-73
2022/10/19 00:06:35;;;;;;;12.35;7.28;;;;;;;15.00;80.21;99263.44;7381427;19;20011;-73
2022/10/19 00:09:06;;;;;;;15.55;8.77;;;;;;;15.13;80.19;99267.28;7384263;19;20469;-72
2022/10/19 00:11:35;;;;;;;12.48;9.13;;;;;;;15.17;80.15;99273.16;7384486;19;20010;-73
2022/10/19 00:14:03;;;;;;;10.93;8.68;;;;;;;15.18;79.82;99272.13;7386902;19;20010;-73
2022/10/19 00:16:32;;;;;;;14.20;9.18;;;;;;;15.25;80.11;99273.16;7381000;19;20062;-73
2022/10/19 00:19:02;;;;;;;12.15;8.52;;;;;;;15.30;80.07;99273.50;7380183;19;20717;-73
2022/10/19 00:21:29;;;;;;;15.30;9.40;;;;;;;15.35;80.08;99273.03;7384294;19;20035;-73
2022/10/19 00:23:56;;;;;;;14.82;10.15;;;;;;;15.38;79.89;99272.69;7383091;19;20011;-73
2022/10/19 00:26:24;;;;;;;15.77;10.20;;;;;;;15.39;79.97;99271.69;7383079;19;20018;-73
2022/10/19 00:28:55;;;;;;;14.48;10.77;;;;;;;15.47;80.10;99271.69;7383162;19;20014;-73
2022/10/19 00:31:22;;;;;;;15.93;11.55;;;;;;;15.53;79.72;99267.50;7382354;19;20014;-73
2022/10/19 00:33:49;;;;;;;17.80;12.23;;;;;;;15.58;79.77;99268.69;7382510;19;20036;-73
2022/10/19 00:36:40;;;;;;;17.00;11.63;;;;;;;15.63;79.74;99275.38;7378204;19;20485;-73
2022/10/19 00:39:11;;;;;;;15.27;11.18;;;;;;;15.64;79.76;99272.53;7389602;19;20489;-73
2022/10/19 00:41:38;;;;;;;19.52;11.65;;;;;;;15.65;79.97;99265.38;7391430;19;20397;-73
2022/10/19 00:44:28;;;;;;;16.27;11.90;;;;;;;15.70;80.12;99260.41;7392610;19;20014;-73
2022/10/19 00:47:04;;;;;;;16.00;11.30;;;;;;;15.73;80.14;99260.91;7389279;19;20019;-74
2022/10/19 00:49:38;;;;;;;14.77;12.05;;;;;;;15.77;80.10;99264.06;7388252;19;20028;-73
2022/10/19 00:52:13;;;;;;;14.60;11.35;;;;;;;15.76;79.97;99257.88;7387305;19;20018;-73
2022/10/19 00:54:41;;;;;;;16.30;10.70;;;;;;;15.75;79.91;99250.91;7389598;19;20093;-73
2022/10/19 00:57:08;;;;;;;12.98;10.13;;;;;;;15.70;80.02;99250.56;7390370;19;20090;-73
2022/10/19 00:59:35;;;;;;;12.45;9.48;;;;;;;15.69;79.98;99259.56;7388430;19;20010;-73
2022/10/19 01:02:04;;;;;;;15.98;9.85;;;;;;;15.70;79.85;99258.56;7390430;19;20541;-73
2022/10/19 01:04:34;;;;;;;14.63;8.70;;;;;;;15.63;80.23;99254.84;7390691;19;20481;-73
2022/10/19 01:07:02;;;;;;;13.95;9.32;;;;;;;15.66;80.19;99265.19;7385435;19;20588;-73
2022/10/19 01:09:29;;;;;;;13.82;9.93;;;;;;;15.70;80.22;99276.41;7387741;19;20015;-73
2022/10/19 01:12:06;;;;;;;15.90;9.23;;;;;;;15.77;79.80;99270.25;7387845;19;20154;-73
2022/10/19 01:14:48;;;;;;;19.45;10.85;;;;;;;15.78;79.42;99266.56;7391482;19;20034;-73
2022/10/19 01:17:37;;;;;;;17.67;10.77;;;;;;;15.77;79.40;99266.72;7389863;19;20015;-73
2022/10/19 01:20:29;;;;;;;20.33;10.30;;;;;;;15.77;79.28;99262.25;7388710;19;20372;-73
2022/10/19 01:23:28;;;;;;;21.67;9.23;;;;;;;15.75;79.63;99268.75;7389879;19;20407;-73
2022/10/19 01:26:01;;;;;;;23.13;10.10;;;;;;;15.73;79.83;99257.41;7386942;19;20031;-73
2022/10/19 01:29:07;;;;;;;14.00;9.57;;;;;;;15.75;79.99;99255.41;7389510;19;20035;-73
2022/10/19 01:31:43;;;;;;;14.85;8.73;;;;;;;15.80;79.53;99256.56;7383372;19;20118;-73
2022/10/19 01:34:20;;;;;;;12.60;8.75;;;;;;;15.76;79.48;99241.88;7389802;19;20014;-73
2022/10/19 01:36:59;;;;;;;13.68;8.15;;;;;;;15.70;79.39;99239.88;7387218;19;20484;-73
2022/10/19 01:39:35;;;;;;;11.77;8.40;;;;;;;15.66;79.42;99235.84;7387020;19;20023;-73
2022/10/19 01:42:15;;;;;;;10.30;8.60;;;;;;;15.61;79.36;99242.69;7384282;19;20014;-73
2022/10/19 01:44:47;;;;;;;10.05;8.70;;;;;;;15.50;79.53;99249.19;7386739;19;20453;-73
2022/10/19 01:47:18;;;;;;;15.80;9.95;;;;;;;15.44;79.73;99239.19;7387971;19;20006;-73
2022/10/19 01:50:02;;;;;;;14.77;9.50;;;;;;;15.49;79.62;99228.88;7385991;19;20017;-73
2022/10/19 01:52:30;;;;;;;16.48;9.93;;;;;;;15.44;79.91;99240.00;7388427;19;20088;-73
2022/10/19 01:54:58;;;;;;;13.40;10.00;;;;;;;15.47;79.86;99231.69;7388602;19;20085;-73
2022/10/19 01:57:33;;;;;;;19.75;10.75;;;;;;;15.47;79.90;99228.19;7385459;19;20010;-73
2022/10/19 02:00:06;;;;;;;25.48;10.93;;;;;;;15.50;79.85;99222.50;7386143;19;20050;-73
2022/10/19 02:02:45;;;;;;;12.85;10.02;;;;;;;15.49;79.91;99220.88;7387861;19;20025;-73
2022/10/19 02:05:13;;;;;;;18.83;11.55;;;;;;;15.52;80.11;99216.00;7390831;19;20039;-73
2022/10/19 02:07:44;;;;;;;13.98;11.18;;;;;;;15.52;79.90;99213.34;7384096;19;21120;-74
2022/10/19 02:10:10;;;;;;;16.27;10.10;;;;;;;15.53;79.96;99211.50;7382817;19;20097;-73
2022/10/19 02:12:38;;;;;;;17.23;11.93;;;;;;;15.57;79.90;99213.69;7387027;19;20038;-73
2022/10/19 02:15:10;;;;;;;15.35;11.30;;;;;;;15.58;80.06;99217.19;7388500;19;20014;-73
2022/10/19 02:17:44;;;;;;;15.82;11.18;;;;;;;15.56;80.15;99213.84;7384637;19;20010;-74
2022/10/19 02:20:11;;;;;;;20.55;11.38;;;;;;;15.60;79.93;99212.53;7387324;19;20022;-73
2022/10/19 02:22:39;;;;;;;18.42;10.57;;;;;;;15.65;79.97;99217.34;7387413;19;20364;-73
2022/10/19 02:25:06;;;;;;;12.27;10.27;;;;;;;15.63;80.02;99206.84;7386443;19;20031;-73
2022/10/19 02:27:33;;;;;;;15.38;11.15;;;;;;;15.63;79.86;99206.84;7389535;19;20018;-73
2022/10/19 02:30:00;;;;;;;14.00;11.10;;;;;;;15.65;79.83;99199.50;7384624;19;20379;-73
2022/10/19 02:32:27;;;;;;;13.45;10.98;;;;;;;15.65;79.95;99198.69;7387362;19;20028;-74
2022/10/19 02:34:54;;;;;;;13.55;10.63;;;;;;;15.65;79.78;99196.03;7388458;19;20022;-73
2022/10/19 02:37:20;;;;;;;14.23;10.60;;;;;;;15.69;79.82;99190.22;7389575;19;20059;-73
2022/10/19 02:39:51;;;;;;;12.75;10.20;;;;;;;15.72;79.46;99191.72;7384592;19;20065;-72
2022/10/19 02:42:22;;;;;;;11.55;9.57;;;;;;;15.64;79.68;99195.19;7385251;19;20017;-74
2022/10/19 02:44:56;;;;;;;10.05;9.00;;;;;;;15.66;79.71;99187.00;7388982;19;20014;-74
2022/10/19 02:47:32;;;;;;;12.32;9.05;;;;;;;15.68;79.73;99177.84;7382976;19;20486;-73
2022/10/19 02:50:00;;;;;;;12.68;9.88;;;;;;;15.66;79.67;99185.16;7385008;19;20018;-74
2022/10/19 02:52:26;;;;;;;11.02;9.52;;;;;;;15.70;79.68;99186.53;7384804;19;20034;-73
2022/10/19 02:54:53;;;;;;;10.98;9.73;;;;;;;15.72;79.70;99189.06;7388195;19;20022;-72
2022/10/19 02:57:22;;;;;;;16.95;9.68;;;;;;;15.71;79.57;99174.03;7389789;19;20015;-73
2022/10/19 02:59:50;;;;;;;16.63;10.20;;;;;;;15.72;79.58;99178.38;7386864;19;20039;-74
2022/10/19 03:02:18;;;;;;;10.85;8.98;;;;;;;15.66;79.64;99185.16;7381044;19;20018;-72
2022/10/19 03:04:46;;;;;;;13.80;9.75;;;;;;;15.57;79.88;99181.69;7387021;19;20515;-72
2022/10/19 03:07:33;;;;;;;12.48;9.90;;;;;;;15.43;80.35;99186.84;7385800;19;20493;-73
2022/10/19 03:10:00;;;;;;;12.07;10.30;;;;;;;15.40;80.31;99174.69;7385994;19;20040;-73
2022/10/19 03:12:27;;;;;;;10.60;9.35;;;;;;;15.28;80.82;99168.84;7383638;19;20018;-73
2022/10/19 03:14:54;;;;;;;15.70;10.25;;;;;;;15.19;80.92;99172.50;7387562;19;20017;-72
2022/10/19 03:17:20;;;;;;;20.65;10.55;;;;;;;15.19;81.08;99174.34;7385579;19;20011;-74
2022/10/19 03:19:47;;;;;;;20.42;11.60;;;;;;;15.20;81.12;99173.38;7386644;19;20057;-73
2022/10/19 03:22:14;;;;;;;21.58;11.40;;;;;;;15.15;81.29;99171.19;7384764;19;20020;-73
2022/10/19 03:24:41;;;;;;;15.88;10.65;;;;;;;15.18;81.29;99165.53;7386175;19;20526;-73
2022/10/19 03:27:07;;;;;;;18.38;11.88;;;;;;;15.26;81.11;99173.50;7382936;19;20022;-73
2022/10/19 03:29:35;;;;;;;16.08;10.73;;;;;;;15.31;81.13;99171.19;7389393;19;20020;-73
2022/10/19 03:32:01;;;;;;;18.95;12.30;;;;;;;15.35;80.96;99174.38;7386765;19;20058;-73
2022/10/19 03:34:28;;;;;;;18.58;11.57;;;;;;;15.41;80.76;99171.03;7388148;19;21199;-72
2022/10/19 03:36:55;;;;;;;18.17;11.80;;;;;;;15.45;80.71;99163.50;7382982;19;20070;-72
2022/10/19 03:39:22;;;;;;;14.55;10.65;;;;;;;15.50;80.29;99158.50;7382703;19;20011;-72
2022/10/19 03:41:48;;;;;;;22.77;12.50;;;;;;;15.48;80.38;99156.03;7385627;19;20007;-72
2022/10/19 03:44:15;;;;;;;17.55;12.57;;;;;;;15.44;80.25;99164.53;7389038;19;20018;-73
2022/10/19 03:46:42;;;;;;;22.70;13.32;;;;;;;15.45;80.04;99161.69;7383326;19;20473;-73
2022/10/19 03:49:14;;;;;;;19.42;13.43;;;;;;;15.46;79.95;99159.88;7385855;19;20022;-73
2022/10/19 03:51:41;;;;;;;25.38;13.25;;;;;;;15.43;79.91;99152.19;7386936;19;20027;-72
2022/10/19 03:54:11;;;;;;;24.70;14.55;;;;;;;15.41;79.90;99156.88;7386253;19;20018;-74
2022/10/19 03:56:38;;;;;;;21.55;12.82;;;;;;;15.32;80.15;99156.88;7381080;19;20019;-73
2022/10/19 03:59:05;;;;;;;23.70;13.85;;;;;;;15.28;80.20;99163.53;7382171;19;20387;-73
2022/10/19 04:01:37;;;;;;;24.77;14.35;;;;;;;15.23;80.23;99160.53;7384957;19;20039;-73
2022/10/19 04:04:07;;;;;;;18.73;12.95;;;;;;;15.18;80.24;99159.38;7387139;19;20038;-72
2022/10/19 04:06:36;;;;;;;21.42;12.20;;;;;;;15.15;80.41;99160.53;7385762;19;20089;-74
2022/10/19 04:09:05;;;;;;;20.75;13.02;;;;;;;15.09;80.49;99166.53;7382986;19;20014;-74
2022/10/19 04:11:33;;;;;;;14.07;10.52;;;;;;;15.03;80.48;99172.50;7379675;19;20048;-72
2022/10/19 04:14:00;;;;;;;16.90;11.23;;;;;;;14.99;80.75;99152.53;7388875;19;20018;-73
2022/10/19 04:16:29;;;;;;;13.55;10.23;;;;;;;15.02;80.50;99160.19;7387509;19;20040;-73
2022/10/19 04:18:56;;;;;;;18.23;11.75;;;;;;;14.92;80.77;99163.00;7391623;19;20023;-73
2022/10/19 04:21:34;;;;;;;15.32;11.27;;;;;;;14.89;80.73;99158.81;7394000;19;20022;-73
2022/10/19 04:24:02;;;;;;;16.20;10.75;;;;;;;14.86;80.59;99153.81;7394951;19;20033;-74
2022/10/19 04:26:29;;;;;;;13.52;10.32;;;;;;;14.83;80.84;99161.31;7387345;19;20015;-73
2022/10/19 04:28:57;;;;;;;11.20;8.95;;;;;;;14.87;80.57;99158.16;7389918;19;20022;-74
2022/10/19 04:31:25;;;;;;;12.48;9.45;;;;;;;14.89;80.53;99160.66;7388204;19;20025;-73
2022/10/19 04:33:52;;;;;;;12.25;9.13;;;;;;;14.83;80.76;99158.66;7393302;19;20046;-73
2022/10/19 04:36:18;;;;;;;12.93;10.80;;;;;;;14.84;80.79;99158.47;7392522;19;20010;-73
2022/10/19 04:38:45;;;;;;;13.55;10.68;;;;;;;14.78;80.69;99167.13;7390181;19;20030;-73
2022/10/19 04:41:15;;;;;;;14.23;10.30;;;;;;;14.70;80.76;99164.47;7389763;19;20462;-73
2022/10/19 04:43:44;;;;;;;11.60;9.85;;;;;;;14.65;81.01;99169.44;7387836;19;20096;-75
2022/10/19 04:46:13;;;;;;;12.23;10.02;;;;;;;14.62;81.07;99172.44;7383937;19;20039;-73
2022/10/19 04:48:40;;;;;;;20.52;11.45;;;;;;;14.70;81.13;99167.13;7388156;19;20014;-73
2022/10/19 04:51:08;;;;;;;13.63;10.75;;;;;;;14.75;81.35;99171.97;7387721;19;20481;-73
2022/10/19 04:53:36;;;;;;;18.25;12.02;;;;;;;14.76;81.33;99174.44;7389457;19;20039;-73
2022/10/19 04:56:05;;;;;;;14.57;11.95;;;;;;;14.83;81.20;99164.81;7389247;19;20018;-73
2022/10/19 04:58:32;;;;;;;18.83;12.13;;;;;;;14.85;81.18;99162.81;7391757;19;20379;-74
2022/10/19 05:00:59;;;;;;;13.60;10.73;;;;;;;14.87;81.08;99167.97;7386801;19;20030;-73
2022/10/19 05:03:25;;;;;;;14.35;10.52;;;;;;;14.88;81.19;99165.16;7389205;19;20006;-73
2022/10/19 05:05:52;;;;;;;14.68;12.02;;;;;;;14.90;81.17;99163.16;7386298;19;20018;-73
2022/10/19 05:08:19;;;;;;;16.77;11.73;;;;;;;14.91;80.80;99164.81;7390044;19;20018;-73
2022/10/19 05:10:46;;;;;;;16.83;12.00;;;;;;;14.86;81.04;99156.50;7390843;19;20058;-74
2022/10/19 05:13:13;;;;;;;15.40;11.63;;;;;;;14.85;80.89;99160.16;7380881;19;20089;-72
2022/10/19 05:15:40;;;;;;;14.38;10.82;;;;;;;14.87;80.85;99158.16;7389667;19;20395;-72
2022/10/19 05:18:06;;;;;;;14.88;11.52;;;;;;;14.89;80.63;99160.66;7389525;19;20090;-73
2022/10/19 05:20:33;;;;;;;13.73;10.57;;;;;;;14.91;80.55;99161.34;7387157;19;20011;-74
2022/10/19 05:22:59;;;;;;;12.65;10.65;;;;;;;14.97;80.31;99166.00;7383938;19;20018;-72
2022/10/19 05:25:32;;;;;;;18.35;10.82;;;;;;;14.97;80.21;99159.84;7382875;19;20037;-72
2022/10/19 05:27:59;;;;;;;15.60;10.85;;;;;;;14.97;80.20;99154.50;7380092;19;20014;-73
2022/10/19 05:30:26;;;;;;;12.05;10.50;;;;;;;14.96;80.29;99163.50;7385058;19;20544;-72
2022/10/19 05:32:53;;;;;;;10.70;9.15;;;;;;;14.99;80.06;99155.19;7384312;19;20061;-73
2022/10/19 05:35:20;;;;;;;9.85;8.63;;;;;;;14.89;79.87;99166.00;7382295;19;20040;-73
2022/10/19 05:37:53;;;;;;;9.75;7.57;;;;;;;14.84;80.13;99153.16;7381683;19;20039;-73
2022/10/19 05:40:20;;;;;;;8.37;7.43;;;;;;;14.92;79.77;99160.31;7387756;19;20347;-73
2022/10/19 05:42:46;;;;;;;15.85;8.20;;;;;;;14.86;79.47;99164.47;7388442;19;20011;-72
2022/10/19 05:45:13;;;;;;;14.15;8.30;;;;;;;14.78;79.58;99159.16;7390134;19;20018;-72
2022/10/19 05:47:40;;;;;;;14.75;7.32;;;;;;;14.70;79.67;99153.81;7388729;19;20010;-73
2022/10/19 05:50:07;;;;;;;7.97;7.18;;;;;;;14.64;79.84;99155.28;7388142;19;20038;-72
2022/10/19 05:52:33;;;;;;;11.10;8.20;;;;;;;14.65;79.85;99156.13;7386714;19;20039;-73
2022/10/19 05:55:00;;;;;;;10.73;8.63;;;;;;;14.62;79.87;99149.28;7389576;19;20042;-72
2022/10/19 05:57:26;;;;;;;20.50;8.30;;;;;;;14.61;79.91;99152.09;7389448;19;20376;-73
2022/10/19 05:59:55;;;;;;;11.18;7.82;;;;;;;14.57;79.82;99161.44;7390162;19;20488;-72
2022/10/19 06:02:22;;;;;;;12.27;10.25;;;;;;;14.53;79.88;99160.06;7391158;19;20031;-73
2022/10/19 06:04:49;;;;;;;11.70;9.73;;;;;;;14.49;80.17;99164.84;7390947;19;20459;-72
2022/10/19 06:07:15;;;;;;;20.15;9.25;;;;;;;14.49;80.20;99162.19;7388843;19;20032;-72
2022/10/19 06:09:42;;;;;;;17.75;8.65;;;;;;;14.47;80.06;99173.00;7386961;19;20509;-73
2022/10/19 06:12:09;;;;;;;13.30;9.02;;;;;;;14.44;80.41;99181.31;7382064;19;20040;-72
2022/10/19 06:14:35;;;;;;;11.93;8.55;;;;;;;14.49;80.69;99179.00;7388735;19;20018;-73
2022/10/19 06:17:02;;;;;;;15.70;9.73;;;;;;;14.53;80.51;99179.53;7386399;19;20022;-73
2022/10/19 06:19:29;;;;;;;11.77;9.18;;;;;;;14.59;80.64;99183.41;7387165;19;20022;-73
2022/10/19 06:21:56;;;;;;;10.52;8.75;;;;;;;14.65;80.72;99180.09;7384361;19;20973;-72
2022/10/19 06:24:22;;;;;;;11.65;9.95;;;;;;;14.70;80.54;99175.09;7388201;19;20493;-73
2022/10/19 06:26:49;;;;;;;11.18;9.65;;;;;;;14.77;80.67;99173.47;7384855;19;20007;-72
2022/10/19 06:29:16;;;;;;;16.25;10.32;;;;;;;14.86;80.53;99166.31;7386638;19;20396;-72
2022/10/19 06:31:44;;;;;;;17.52;11.30;;;;;;;14.92;80.11;99173.66;7388225;19;20049;-73
2022/10/19 06:34:11;;;;;;;12.10;10.18;;;;;;;14.96;80.07;99174.16;7388654;19;20660;-73
2022/10/19 06:36:37;;;;;;;13.68;9.43;;;;;;;14.99;79.86;99177.34;7385703;19;20014;-72
2022/10/19 06:39:04;;;;;;;13.23;10.23;;;;;;;15.03;79.58;99183.16;7388911;19;20033;-72
2022/10/19 06:41:31;;;;;;;13.13;10.18;;;;;;;15.03;79.82;99176.00;7386258;19;20045;-72
2022/10/19 06:44:14;;;;;;;13.15;10.45;;;;;;;15.09;79.81;99166.53;7383352;19;20904;-72
2022/10/19 06:46:41;;;;;;;14.00;9.98;;;;;;;15.17;80.02;99179.03;7383848;19;20446;-73
2022/10/19 06:49:11;;;;;;;13.40;11.25;;;;;;;15.26;79.84;99178.03;7386029;19;20043;-72
2022/10/19 06:51:39;;;;;;;12.63;10.35;;;;;;;15.39;80.01;99175.69;7386354;19;20038;-73
2022/10/19 06:54:06;;;;;;;12.15;10.23;;;;;;;15.46;79.44;99170.53;7385994;19;20022;-73
2022/10/19 06:56:33;;;;;;;17.02;11.05;;;;;;;15.44;79.39;99176.03;7385297;19;20022;-72
2022/10/19 06:59:00;;;;;;;15.23;11.38;;;;;;;15.50;79.08;99177.19;7384072;19;20042;-73
2022/10/19 07:01:26;;;;;;;19.15;11.93;;;;;;;15.43;79.39;99171.69;7384879;19;20011;-72
2022/10/19 07:03:54;;;;;;;14.63;11.68;;;;;;;15.35;79.68;99171.72;7388851;19;20031;-72
2022/10/19 07:06:21;;;;;;;15.90;11.82;;;;;;;15.32;80.09;99169.34;7385313;19;20039;-73
2022/10/19 07:08:47;;;;;;;18.58;13.13;;;;;;;15.36;80.27;99171.53;7383709;19;20506;-72
2022/10/19 07:11:17;;;;;;;22.25;12.13;;;;;;;15.35;80.69;99171.72;7385853;19;20022;-73
2022/10/19 07:13:44;;;;;;;15.90;12.60;;;;;;;15.42;80.91;99178.00;7383560;19;20023;-72
2022/10/19 07:16:13;;;;;;;17.73;12.52;;;;;;;15.62;80.66;99177.69;7383025;19;20038;-72
2022/10/19 07:18:46;;;;;;;18.00;12.82;;;;;;;15.74;80.33;99176.34;7383292;19;20021;-73
2022/10/19 07:21:15;;;;;;;16.45;12.18;;;;;;;15.82;80.20;99178.16;7387195;19;20014;-73
2022/10/19 07:23:43;;;;;;;18.45;13.70;;;;;;;15.85;80.20;99183.16;7386990;19;20018;-72
2022/10/19 07:26:14;;;;;;;19.50;13.27;;;;;;;15.90;79.87;99188.81;7386489;19;20391;-73
2022/10/19 07:28:43;;;;;;;21.07;13.03;;;;;;;15.87;79.92;99181.16;7387254;19;20031;-73
2022/10/19 07:31:12;;;;;;;18.33;12.77;;;;;;;15.96;79.60;99186.31;7384346;19;20306;-72
2022/10/19 07:33:39;;;;;;;13.80;11.75;;;;;;;15.97;79.51;99192.50;7385720;19;20030;-73
2022/10/19 07:36:07;;;;;;;17.52;12.10;;;;;;;16.07;79.54;99197.66;7378971;19;20018;-72
2022/10/19 07:38:34;;;;;;;16.35;12.52;;;;;;;16.06;79.15;99196.81;7383050;19;20351;-73
2022/10/19 07:41:06;;;;;;;16.40;12.32;;;;;;;16.08;79.12;99188.63;7387959;19;20011;-73
2022/10/19 07:43:33;;;;;;;14.02;11.52;;;;;;;16.14;79.30;99187.94;7387049;19;20018;-72
2022/10/19 07:46:02;;;;;;;22.52;11.98;;;;;;;16.28;79.18;99186.41;7385939;19;20015;-72
2022/10/19 07:48:29;;;;;;;15.23;12.68;;;;;;;16.48;78.89;99198.31;7392830;19;20027;-74
2022/10/19 07:50:56;;;;;;;14.80;12.38;;;;;;;16.61;78.30;99187.94;7390084;19;20082;-73
2022/10/19 07:53:23;;;;;;;22.08;12.13;;;;;;;16.72;78.09;99191.19;7388926;19;20039;-72
2022/10/19 07:55:50;;;;;;;14.82;11.38;;;;;;;16.82;77.42;99191.84;7393366;19;20510;-72
2022/10/19 07:58:16;;;;;;;14.68;10.43;;;;;;;16.85;77.27;99196.84;7393006;19;20011;-72
2022/10/19 08:00:43;;;;;;;19.02;10.40;;;;;;;16.88;77.49;99189.31;7394312;19;20663;-72
2022/10/19 08:03:10;;;;;;;13.90;11.15;;;;;;;16.98;77.07;99202.47;7393178;19;20022;-73
2022/10/19 08:06:01;;;;;;;14.73;10.60;;;;;;;17.01;76.35;99190.56;7391077;19;20085;-73
2022/10/19 08:08:28;;;;;;;14.30;10.38;;;;;;;17.07;76.29;99192.53;7388880;19;20007;-73
2022/10/19 08:10:55;;;;;;;12.98;10.05;;;;;;;17.05;75.97;99190.03;7389859;19;20061;-72
2022/10/19 08:13:22;;;;;;;12.20;9.10;;;;;;;17.15;75.87;99194.34;7390419;19;20034;-72
2022/10/19 08:15:49;;;;;;;10.77;9.57;;;;;;;17.30;75.73;99189.88;7392814;19;20022;-73
2022/10/19 08:18:17;;;;;;;13.07;8.88;;;;;;;17.37;74.81;99189.97;7393195;19;20022;-73
2022/10/19 08:20:43;;;;;;;11.68;9.32;;;;;;;17.43;74.22;99183.91;7394154;19;20044;-72
2022/10/19 08:23:10;;;;;;;11.60;9.25;;;;;;;17.47;73.78;99196.75;7389458;19;20014;-72
2022/10/19 08:25:37;;;;;;;10.77;9.23;;;;;;;17.43;73.31;99192.78;7391092;19;20513;-73
2022/10/19 08:28:04;;;;;;;13.70;9.40;;;;;;;17.35;73.59;99184.78;7392958;19;20010;-72
2022/10/19 08:30:30;;;;;;;16.50;9.60;;;;;;;17.25;74.08;99179.72;7392768;19;20023;-73
2022/10/19 08:32:57;;;;;;;14.32;9.30;;;;;;;17.31;73.87;99183.50;7390304;19;20400;-73
2022/10/19 08:35:24;;;;;;;12.13;8.75;;;;;;;17.16;74.16;99178.09;7393230;19;20125;-72
2022/10/19 08:37:51;;;;;;;13.88;8.77;;;;;;;17.22;74.25;99176.53;7388792;19;20015;-74
2022/10/19 08:40:22;;;;;;;11.13;8.50;;;;;;;17.26;74.87;99178.69;7390017;19;20014;-72
2022/10/19 08:42:59;;;;;;;11.18;8.35;;;;;;;17.40;74.37;99176.25;7387180;19;20010;-72
2022/10/19 08:45:38;;;;;;;12.30;8.43;;;;;;;17.38;74.37;99170.22;7388522;19;20092;-74
2022/10/19 08:48:28;;;;;;;11.98;8.50;;;;;;;17.33;73.80;99178.81;7393172;19;20433;-72
2022/10/19 08:50:56;;;;;;;8.05;6.97;;;;;;;17.28;73.85;99181.19;7393598;19;20026;-72
2022/10/19 08:53:31;;;;;;;11.15;7.05;;;;;;;17.33;73.65;99184.16;7385062;19;20089;-72
2022/10/19 08:56:17;;;;;;;10.10;6.90;;;;;;;17.16;73.80;99190.63;7388981;19;20022;-74
2022/10/19 08:59:10;;;;;;;7.45;6.43;;;;;;;17.16;73.64;99188.78;7390684;19;20022;-72
2022/10/19 09:01:48;;;;;;;10.35;7.03;;;;;;;17.17;73.73;99194.97;7392296;19;20034;-72
2022/10/19 09:04:25;;;;;;;8.63;6.88;;;;;;;17.16;73.67;99187.97;7393363;19;20339;-72
2022/10/19 09:07:15;;;;;;;9.93;6.05;;;;;;;16.96;73.84;99190.28;7388081;19;21047;-72
2022/10/19 09:09:45;;;;;;;8.00;6.10;;;;;;;17.00;74.24;99191.56;7390271;19;20014;-73
2022/10/19 09:12:39;;;;;;;8.73;5.85;;;;;;;17.18;73.73;99183.28;7388481;19;20054;-73
2022/10/19 09:15:12;;;;;;;6.95;4.40;;;;;;;17.25;73.64;99187.72;7388782;19;20108;-72
2022/10/19 09:17:38;;;;;;;7.45;4.38;;;;;;;17.40;73.85;99174.38;7392130;19;20042;-72
2022/10/19 09:20:20;;;;;;;5.63;3.83;;;;;;;17.53;73.17;99169.25;7389982;19;20035;-72
2022/10/19 09:22:57;;;;;;;6.55;3.75;;;;;;;17.58;72.53;99165.22;7392447;19;20470;-73
2022/10/19 09:25:24;;;;;;;5.40;3.47;;;;;;;17.73;72.42;99172.25;7387341;19;20026;-72
2022/10/19 09:28:09;;;;;;;6.10;3.90;;;;;;;17.75;72.35;99164.06;7387798;19;20038;-72
2022/10/19 09:30:36;;;;;;;4.82;3.30;;;;;;;17.82;71.82;99164.19;7386681;19;20447;-72
2022/10/19 09:33:05;;;;;;;4.85;3.45;;;;;;;17.81;71.32;99171.38;7387354;19;20042;-72
2022/10/19 09:35:35;;;;;;;4.35;3.00;;;;;;;17.85;71.47;99162.00;7390913;19;20015;-72
2022/10/19 09:38:04;;;;;;;7.05;3.20;;;;;;;17.87;71.65;99164.47;7389288;19;20018;-73
2022/10/19 09:40:30;;;;;;;4.43;3.38;;;;;;;18.01;71.53;99168.16;7391200;19;20018;-72
2022/10/19 09:42:58;;;;;;;5.15;3.47;;;;;;;18.11;71.29;99160.69;7392280;19;20010;-72
2022/10/19 09:45:44;;;;;;;4.38;3.33;;;;;;;18.11;71.08;99166.88;7386340;19;20385;-72
2022/10/19 09:48:22;;;;;;;5.38;3.55;;;;;;;18.15;71.34;99167.34;7386205;19;20014;-72
2022/10/19 09:50:58;;;;;;;8.65;2.70;;;;;;;18.18;70.69;99156.25;7390413;19;20015;-72
2022/10/19 09:53:25;;;;;;;7.28;3.28;;;;;;;18.08;70.51;99158.38;7387722;19;20053;-72
2022/10/19 09:56:17;;;;;;;3.42;2.60;;;;;;;18.18;71.10;99157.09;7389110;19;20030;-72
2022/10/19 09:58:49;;;;;;;4.93;3.47;;;;;;;18.21;70.70;99159.38;7389006;19;20047;-75
2022/10/19 10:01:35;;;;;;;3.50;2.47;;;;;;;18.23;70.57;99163.75;7389601;19;20018;-72
2022/10/19 10:04:17;;;;;;;4.30;2.75;;;;;;;18.16;70.70;99163.63;7390662;19;20017;-73
2022/10/19 10:06:47;;;;;;;5.28;3.22;;;;;;;18.09;70.52;99160.03;7387537;19;20046;-73
2022/10/19 10:09:36;;;;;;;3.03;2.42;;;;;;;18.08;71.21;99159.22;7388401;19;20006;-72
2022/10/19 10:12:03;;;;;;;4.68;2.92;;;;;;;18.17;71.38;99155.44;7385924;19;20014;-72
2022/10/19 10:14:32;;;;;;;3.22;2.92;;;;;;;18.14;71.02;99155.81;7389880;19;20031;-73
2022/10/19 10:17:15;;;;;;;3.53;3.00;;;;;;;18.15;70.65;99149.44;7385475;19;20038;-72
2022/10/19 10:19:59;;;;;;;3.80;2.55;;;;;;;18.20;70.67;99154.22;7385009;19;20376;-72
2022/10/19 10:22:36;;;;;;;6.70;3.40;;;;;;;18.26;70.10;99158.00;7385213;19;20481;-73
2022/10/19 10:25:17;;;;;;;7.57;3.55;;;;;;;18.12;70.28;99152.47;7388191;19;20018;-72
2022/10/19 10:28:11;;;;;;;3.13;2.50;;;;;;;18.41;70.21;99145.44;7388211;19;20042;-72
2022/10/19 10:30:38;;;;;;;3.72;2.83;;;;;;;18.58;69.66;99151.41;7390193;19;20027;-73
2022/10/19 10:33:04;;;;;;;3.63;2.80;;;;;;;18.46;69.46;99144.84;7386031;19;20035;-72
2022/10/19 10:35:54;;;;;;;5.85;3.17;;;;;;;18.74;69.46;99139.63;7385872;19;20019;-74
2022/10/19 10:38:25;;;;;;;4.05;2.47;;;;;;;18.94;68.53;99135.34;7385591;19;20022;-73
2022/10/19 10:41:07;;;;;;;3.08;2.53;;;;;;;19.16;67.82;99133.47;7386953;19;20084;-72
2022/10/19 10:43:35;;;;;;;2.63;2.42;;;;;;;19.23;66.68;99129.00;7384063;19;20509;-73
2022/10/19 10:46:07;;;;;;;5.80;2.72;;;;;;;19.16;66.48;99136.16;7386703;19;20014;-72
2022/10/19 10:48:41;;;;;;;6.10;2.85;;;;;;;18.93;67.79;99122.97;7384392;19;20030;-72
2022/10/19 10:51:24;;;;;;;2.78;2.42;;;;;;;18.85;67.43;99126.59;7386319;19;20038;-73
2022/10/19 10:53:50;;;;;;;4.18;3.45;;;;;;;18.59;68.29;99118.25;7379792;19;20018;-72
2022/10/19 10:56:22;;;;;;;5.45;4.00;;;;;;;18.55;68.06;99120.44;7384896;19;20470;-74
2022/10/19 10:58:55;;;;;;;5.93;3.60;;;;;;;18.52;68.48;99114.66;7387602;19;20014;-72
2022/10/19 11:01:23;;;;;;;7.93;3.65;;;;;;;18.55;69.10;99115.09;7388149;19;20272;-73
2022/10/19 11:03:55;;;;;;;4.68;3.47;;;;;;;18.57;69.31;99107.69;7389996;19;20018;-74
2022/10/19 11:06:24;;;;;;;5.07;3.63;;;;;;;18.65;68.81;99104.06;7387403;19;20249;-73
2022/10/19 11:09:14;;;;;;;5.35;3.40;;;;;;;18.56;69.30;99106.03;7384656;19;20037;-72
2022/10/19 11:11:44;;;;;;;4.25;3.75;;;;;;;18.58;68.96;99105.84;7385091;19;20031;-72
2022/10/19 11:14:36;;;;;;;4.00;3.60;;;;;;;18.51;68.83;99104.94;7384426;19;20485;-72
2022/10/19 11:17:05;;;;;;;3.47;3.13;;;;;;;18.46;69.80;99100.16;7385777;19;20022;-72
2022/10/19 11:19:43;;;;;;;4.45;4.03;;;;;;;18.55;68.96;99095.50;7385596;19;20298;-72
2022/10/19 11:22:30;;;;;;;4.93;3.80;;;;;;;18.54;68.93;99093.84;7380210;19;20018;-74
2022/10/19 11:25:16;;;;;;;3.90;3.10;;;;;;;18.49;68.41;99080.19;7384479;19;20018;-73
2022/10/19 11:28:05;;;;;;;8.32;3.65;;;;;;;18.52;68.45;99088.69;7384082;19;20015;-72
2022/10/19 11:30:40;;;;;;;5.95;2.85;;;;;;;18.40;69.25;99074.97;7384289;19;20025;-72
2022/10/19 11:33:23;;;;;;;7.65;2.75;;;;;;;18.38;69.51;99071.63;7382915;19;20061;-74
2022/10/19 11:35:53;;;;;;;7.03;3.35;;;;;;;18.38;69.29;99068.13;7370888;19;20045;-73
2022/10/19 11:38:38;;;;;;;3.45;2.83;;;;;;;18.30;69.63;99071.75;7346022;19;21000;-74
2022/10/19 11:41:15;;;;;;;6.45;2.92;;;;;;;18.17;70.44;99068.91;7358305;19;20030;-73
2022/10/19 11:44:09;;;;;;;4.30;3.25;;;;;;;18.22;70.16;99055.78;7368232;19;20018;-75